WXM80 ListenWXM80 Stop

You find our weather info also at:

UK Metoffice

WeatherCloud

Weather Underground

Northeastern Weather Network

AWEKAS

Citizen Weather Observer Program (CWOP)

HAMweather, WeatherForYou, PWS Weather


Weather Underground History page Text

Daily Summary for January 31, 2018 Units:  Both    English   Metric
« Previous Day
Next Day »
Daily Weekly Monthly Yearly Custom
  High: Low: Average:
Temperature: TemperatureF °F /  -17.8 °C 20.2 °F /  -6.6 °C 27.1 °F /  -2.7 °C
Dew Point: DewpointF °F /  -17.8 °C 12.0 °F /  -11.1 °C 16.9 °F /  -8.4 °C
Humidity: Humidity % 45 % 65 %
Wind Speed: WindSpeedMPH mph /  0 km/h - 3.7 mph /  6 km/h
Wind Gust: WindSpeedGustMPH mph /  0 km/h - -
Wind:- - WSW
Pressure: PressureIn in /  0 hPa 29.81 in /  1009.4 hPa -
Precipitation: 0.00 in /  0 mm    
Historical Graphs
 
 
Tabular Data for January 31, 2018
Time Temperature Dew Point Pressure Wind Wind Speed Wind Gust Humidity Rainfall Rate (Hourly)
TemperatureF °F /  -17.8 °C DewpointF °F /  -17.8 °C PressureIn in /  0 hPa Calm     Humidity % HourlyPrecipIn in /  0 mm
00:04 26.0 °F /  -3.3 °C 18.8 °F /  -7.3 °C 29.90 in /  1012.4 hPa NW 3.0 mph /  4.8 km/h 5.8 mph /  9.3 km/h 74 % 0.00 in /  0 mm
00:09 26.0 °F /  -3.3 °C 18.8 °F /  -7.3 °C 29.90 in /  1012.4 hPa North 4.7 mph /  7.6 km/h 8.1 mph /  13 km/h 74 % 0.00 in /  0 mm
00:15 25.9 °F /  -3.4 °C 18.7 °F /  -7.4 °C 29.90 in /  1012.4 hPa NNW 3.2 mph /  5.1 km/h 7.0 mph /  11.3 km/h 74 % 0.00 in /  0 mm
00:20 25.9 °F /  -3.4 °C 18.7 °F /  -7.4 °C 29.90 in /  1012.4 hPa NNW 5.9 mph /  9.5 km/h 8.1 mph /  13 km/h 74 % 0.00 in /  0 mm
00:25 25.9 °F /  -3.4 °C 18.4 °F /  -7.6 °C 29.90 in /  1012.4 hPa NNW 4.4 mph /  7.1 km/h 9.2 mph /  14.8 km/h 73 % 0.00 in /  0 mm
00:30 25.8 °F /  -3.4 °C 18.0 °F /  -7.8 °C 29.90 in /  1012.4 hPa NNW 7.2 mph /  11.6 km/h 12.7 mph /  20.4 km/h 72 % 0.00 in /  0 mm
00:35 25.7 °F /  -3.5 °C 17.6 °F /  -8 °C 29.91 in /  1012.8 hPa NNW 5.1 mph /  8.2 km/h 10.4 mph /  16.7 km/h 71 % 0.00 in /  0 mm
00:40 25.6 °F /  -3.6 °C 17.5 °F /  -8.1 °C 29.91 in /  1012.8 hPa NNW 4.8 mph /  7.7 km/h 11.5 mph /  18.5 km/h 71 % 0.00 in /  0 mm
00:45 25.5 °F /  -3.6 °C 17.1 °F /  -8.3 °C 29.91 in /  1012.8 hPa WNW 4.4 mph /  7.1 km/h 12.0 mph /  19.3 km/h 70 % 0.00 in /  0 mm
00:50 25.4 °F /  -3.7 °C 17.0 °F /  -8.3 °C 29.91 in /  1012.8 hPa NW 8.0 mph /  12.9 km/h 11.5 mph /  18.5 km/h 70 % 0.00 in /  0 mm
00:55 25.2 °F /  -3.8 °C 16.8 °F /  -8.4 °C 29.91 in /  1012.8 hPa NNW 5.8 mph /  9.3 km/h 11.5 mph /  18.5 km/h 70 % 0.00 in /  0 mm
01:00 25.1 °F /  -3.8 °C 16.7 °F /  -8.5 °C 29.91 in /  1012.8 hPa WNW 4.3 mph /  6.9 km/h 9.2 mph /  14.8 km/h 70 % 0.00 in /  0 mm
01:05 25.0 °F /  -3.9 °C 16.6 °F /  -8.6 °C 29.91 in /  1012.8 hPa NNW 5.6 mph /  9 km/h 9.2 mph /  14.8 km/h 70 % 0.00 in /  0 mm
01:10 24.9 °F /  -3.9 °C 16.2 °F /  -8.8 °C 29.91 in /  1012.8 hPa WNW 5.3 mph /  8.5 km/h 13.0 mph /  20.9 km/h 69 % 0.00 in /  0 mm
01:15 24.8 °F /  -4 °C 16.4 °F /  -8.7 °C 29.91 in /  1012.8 hPa NNW 5.0 mph /  8 km/h 12.0 mph /  19.3 km/h 70 % 0.00 in /  0 mm
01:20 24.8 °F /  -4 °C 16.4 °F /  -8.7 °C 29.91 in /  1012.8 hPa NNW 3.0 mph /  4.8 km/h 9.2 mph /  14.8 km/h 70 % 0.00 in /  0 mm
01:25 24.7 °F /  -4.1 °C 16.3 °F /  -8.7 °C 29.91 in /  1012.8 hPa NW 5.2 mph /  8.4 km/h 11.5 mph /  18.5 km/h 70 % 0.00 in /  0 mm
01:30 24.5 °F /  -4.2 °C 15.8 °F /  -9 °C 29.91 in /  1012.8 hPa NNW 4.3 mph /  6.9 km/h 10.4 mph /  16.7 km/h 69 % 0.00 in /  0 mm
01:35 24.5 °F /  -4.2 °C 16.1 °F /  -8.8 °C 29.91 in /  1012.8 hPa North 3.4 mph /  5.5 km/h 8.1 mph /  13 km/h 70 % 0.00 in /  0 mm
01:40 24.4 °F /  -4.2 °C 15.7 °F /  -9.1 °C 29.91 in /  1012.8 hPa NW 5.4 mph /  8.7 km/h 8.1 mph /  13 km/h 69 % 0.00 in /  0 mm
01:45 24.4 °F /  -4.2 °C 15.7 °F /  -9.1 °C 29.91 in /  1012.8 hPa NNW 5.8 mph /  9.3 km/h 6.9 mph /  11.1 km/h 69 % 0.00 in /  0 mm
01:50 24.3 °F /  -4.3 °C 15.9 °F /  -8.9 °C 29.92 in /  1013.1 hPa NNE 3.9 mph /  6.3 km/h 11.5 mph /  18.5 km/h 70 % 0.00 in /  0 mm
01:56 24.2 °F /  -4.3 °C 15.5 °F /  -9.2 °C 29.91 in /  1012.8 hPa NNW 5.6 mph /  9 km/h 10.4 mph /  16.7 km/h 69 % 0.00 in /  0 mm
02:01 24.2 °F /  -4.3 °C 15.5 °F /  -9.2 °C 29.92 in /  1013.1 hPa NW 5.3 mph /  8.5 km/h 11.0 mph /  17.7 km/h 69 % 0.00 in /  0 mm
02:06 24.2 °F /  -4.3 °C 15.5 °F /  -9.2 °C 29.92 in /  1013.1 hPa NW 6.3 mph /  10.1 km/h 11.5 mph /  18.5 km/h 69 % 0.00 in /  0 mm
02:11 24.1 °F /  -4.4 °C 15.7 °F /  -9.1 °C 29.92 in /  1013.1 hPa NW 4.7 mph /  7.6 km/h 8.1 mph /  13 km/h 70 % 0.00 in /  0 mm
02:16 24.1 °F /  -4.4 °C 15.7 °F /  -9.1 °C 29.92 in /  1013.1 hPa NNE 5.3 mph /  8.5 km/h 11.5 mph /  18.5 km/h 70 % 0.00 in /  0 mm
02:21 24.0 °F /  -4.4 °C 16.0 °F /  -8.9 °C 29.92 in /  1013.1 hPa NNW 3.6 mph /  5.8 km/h 11.5 mph /  18.5 km/h 71 % 0.00 in /  0 mm
02:26 24.0 °F /  -4.4 °C 16.0 °F /  -8.9 °C 29.92 in /  1013.1 hPa NW 3.2 mph /  5.1 km/h 5.8 mph /  9.3 km/h 71 % 0.00 in /  0 mm
02:31 23.9 °F /  -4.5 °C 15.9 °F /  -8.9 °C 29.92 in /  1013.1 hPa North 4.6 mph /  7.4 km/h 8.1 mph /  13 km/h 71 % 0.00 in /  0 mm
02:36 23.9 °F /  -4.5 °C 15.9 °F /  -8.9 °C 29.93 in /  1013.4 hPa North 6.2 mph /  10 km/h 11.5 mph /  18.5 km/h 71 % 0.00 in /  0 mm
02:41 23.8 °F /  -4.6 °C 15.8 °F /  -9 °C 29.93 in /  1013.4 hPa NNE 3.8 mph /  6.1 km/h 6.9 mph /  11.1 km/h 71 % 0.00 in /  0 mm
02:46 23.8 °F /  -4.6 °C 15.8 °F /  -9 °C 29.93 in /  1013.4 hPa North 3.8 mph /  6.1 km/h 6.9 mph /  11.1 km/h 71 % 0.00 in /  0 mm
02:51 23.7 °F /  -4.6 °C 16.0 °F /  -8.9 °C 29.93 in /  1013.4 hPa North 3.3 mph /  5.3 km/h 5.8 mph /  9.3 km/h 72 % 0.00 in /  0 mm
02:56 23.7 °F /  -4.6 °C 16.0 °F /  -8.9 °C 29.93 in /  1013.4 hPa WNW 3.9 mph /  6.3 km/h 8.1 mph /  13 km/h 72 % 0.00 in /  0 mm
03:01 23.6 °F /  -4.7 °C 16.2 °F /  -8.8 °C 29.94 in /  1013.8 hPa North 3.3 mph /  5.3 km/h 6.9 mph /  11.1 km/h 73 % 0.00 in /  0 mm
03:06 23.6 °F /  -4.7 °C 16.2 °F /  -8.8 °C 29.94 in /  1013.8 hPa WNW 0.7 mph /  1.1 km/h 5.8 mph /  9.3 km/h 73 % 0.00 in /  0 mm
03:11 23.6 °F /  -4.7 °C 16.2 °F /  -8.8 °C 29.94 in /  1013.8 hPa NW 1.2 mph /  1.9 km/h 3.5 mph /  5.6 km/h 73 % 0.00 in /  0 mm
03:16 23.5 °F /  -4.7 °C 16.1 °F /  -8.8 °C 29.94 in /  1013.8 hPa NW 5.5 mph /  8.9 km/h 9.2 mph /  14.8 km/h 73 % 0.00 in /  0 mm
03:21 23.5 °F /  -4.7 °C 15.8 °F /  -9 °C 29.94 in /  1013.8 hPa West 4.2 mph /  6.8 km/h 5.0 mph /  8 km/h 72 % 0.00 in /  0 mm
03:26 23.4 °F /  -4.8 °C 15.7 °F /  -9.1 °C 29.94 in /  1013.8 hPa NW 4.5 mph /  7.2 km/h 9.2 mph /  14.8 km/h 72 % 0.00 in /  0 mm
03:32 23.3 °F /  -4.8 °C 15.6 °F /  -9.1 °C 29.95 in /  1014.1 hPa NW 5.2 mph /  8.4 km/h 11.5 mph /  18.5 km/h 72 % 0.00 in /  0 mm
03:37 23.3 °F /  -4.8 °C 15.3 °F /  -9.3 °C 29.95 in /  1014.1 hPa WNW 4.5 mph /  7.2 km/h 11.5 mph /  18.5 km/h 71 % 0.00 in /  0 mm
03:42 23.2 °F /  -4.9 °C 15.2 °F /  -9.3 °C 29.95 in /  1014.1 hPa West 4.2 mph /  6.8 km/h 11.5 mph /  18.5 km/h 71 % 0.00 in /  0 mm
03:47 23.1 °F /  -4.9 °C 15.1 °F /  -9.4 °C 29.95 in /  1014.1 hPa WNW 4.5 mph /  7.2 km/h 11.5 mph /  18.5 km/h 71 % 0.00 in /  0 mm
03:52 23.0 °F /  -5 °C 14.7 °F /  -9.6 °C 29.96 in /  1014.4 hPa WNW 3.4 mph /  5.5 km/h 11.5 mph /  18.5 km/h 70 % 0.00 in /  0 mm
03:57 23.0 °F /  -5 °C 14.7 °F /  -9.6 °C 29.96 in /  1014.4 hPa WNW 3.1 mph /  5 km/h 11.5 mph /  18.5 km/h 70 % 0.00 in /  0 mm
04:02 22.9 °F /  -5.1 °C 14.6 °F /  -9.7 °C 29.96 in /  1014.4 hPa WNW 5.8 mph /  9.3 km/h 10.4 mph /  16.7 km/h 70 % 0.00 in /  0 mm
04:07 22.8 °F /  -5.1 °C 14.5 °F /  -9.7 °C 29.95 in /  1014.1 hPa NW 3.6 mph /  5.8 km/h 5.8 mph /  9.3 km/h 70 % 0.00 in /  0 mm
04:12 22.7 °F /  -5.2 °C 14.4 °F /  -9.8 °C 29.96 in /  1014.4 hPa NNW 4.0 mph /  6.4 km/h 8.1 mph /  13 km/h 70 % 0.00 in /  0 mm
04:17 22.7 °F /  -5.2 °C 14.7 °F /  -9.6 °C 29.96 in /  1014.4 hPa WNW 3.2 mph /  5.1 km/h 5.8 mph /  9.3 km/h 71 % 0.00 in /  0 mm
04:22 22.6 °F /  -5.2 °C 14.3 °F /  -9.8 °C 29.96 in /  1014.4 hPa NW 6.2 mph /  10 km/h 9.2 mph /  14.8 km/h 70 % 0.00 in /  0 mm
04:27 22.5 °F /  -5.3 °C 14.5 °F /  -9.7 °C 29.97 in /  1014.8 hPa NW 2.2 mph /  3.5 km/h 6.9 mph /  11.1 km/h 71 % 0.00 in /  0 mm
04:32 22.4 °F /  -5.3 °C 14.4 °F /  -9.8 °C 29.97 in /  1014.8 hPa NNE 3.6 mph /  5.8 km/h 11.5 mph /  18.5 km/h 71 % 0.00 in /  0 mm
04:37 22.3 °F /  -5.4 °C 14.0 °F /  -10 °C 29.97 in /  1014.8 hPa North 5.1 mph /  8.2 km/h 10.4 mph /  16.7 km/h 70 % 0.00 in /  0 mm
04:42 22.2 °F /  -5.4 °C 14.2 °F /  -9.9 °C 29.97 in /  1014.8 hPa NW 3.6 mph /  5.8 km/h 9.0 mph /  14.5 km/h 71 % 0.00 in /  0 mm
04:47 22.2 °F /  -5.4 °C 13.9 °F /  -10.1 °C 29.97 in /  1014.8 hPa NNW 2.6 mph /  4.2 km/h 9.2 mph /  14.8 km/h 70 % 0.00 in /  0 mm
04:52 22.1 °F /  -5.5 °C 14.1 °F /  -9.9 °C 29.97 in /  1014.8 hPa WNW 3.6 mph /  5.8 km/h 5.8 mph /  9.3 km/h 71 % 0.00 in /  0 mm
04:57 22.0 °F /  -5.6 °C 14.0 °F /  -10 °C 29.97 in /  1014.8 hPa NW 4.9 mph /  7.9 km/h 6.9 mph /  11.1 km/h 71 % 0.00 in /  0 mm
05:02 22.0 °F /  -5.6 °C 13.7 °F /  -10.2 °C 29.97 in /  1014.8 hPa NW 4.0 mph /  6.4 km/h 11.5 mph /  18.5 km/h 70 % 0.00 in /  0 mm
05:08 21.9 °F /  -5.6 °C 13.9 °F /  -10.1 °C 29.98 in /  1015.1 hPa WNW 2.1 mph /  3.4 km/h 10.4 mph /  16.7 km/h 71 % 0.00 in /  0 mm
05:13 21.8 °F /  -5.7 °C 13.5 °F /  -10.3 °C 29.98 in /  1015.1 hPa NW 3.9 mph /  6.3 km/h 6.0 mph /  9.7 km/h 70 % 0.00 in /  0 mm
05:18 21.7 °F /  -5.7 °C 13.7 °F /  -10.2 °C 29.98 in /  1015.1 hPa West 2.3 mph /  3.7 km/h 8.1 mph /  13 km/h 71 % 0.00 in /  0 mm
05:23 21.7 °F /  -5.7 °C 13.7 °F /  -10.2 °C 29.99 in /  1015.5 hPa WNW 3.6 mph /  5.8 km/h 5.8 mph /  9.3 km/h 71 % 0.00 in /  0 mm
05:28 21.6 °F /  -5.8 °C 13.6 °F /  -10.2 °C 29.99 in /  1015.5 hPa NW 3.2 mph /  5.1 km/h 6.9 mph /  11.1 km/h 71 % 0.00 in /  0 mm
05:33 21.5 °F /  -5.8 °C 13.5 °F /  -10.3 °C 29.98 in /  1015.1 hPa WNW 5.1 mph /  8.2 km/h 8.1 mph /  13 km/h 71 % 0.00 in /  0 mm
05:38 21.5 °F /  -5.8 °C 13.5 °F /  -10.3 °C 29.99 in /  1015.5 hPa NW 4.5 mph /  7.2 km/h 8.1 mph /  13 km/h 71 % 0.00 in /  0 mm
05:43 21.4 °F /  -5.9 °C 13.5 °F /  -10.3 °C 29.99 in /  1015.5 hPa NNW 2.9 mph /  4.7 km/h 9.2 mph /  14.8 km/h 71 % 0.00 in /  0 mm
05:48 21.3 °F /  -5.9 °C 13.4 °F /  -10.3 °C 30.00 in /  1015.8 hPa NNE 4.1 mph /  6.6 km/h 8.1 mph /  13 km/h 71 % 0.00 in /  0 mm
05:53 21.3 °F /  -5.9 °C 13.4 °F /  -10.3 °C 30.00 in /  1015.8 hPa NW 6.8 mph /  10.9 km/h 11.0 mph /  17.7 km/h 71 % 0.00 in /  0 mm
05:58 21.2 °F /  -6 °C 13.3 °F /  -10.4 °C 30.00 in /  1015.8 hPa NNW 5.1 mph /  8.2 km/h 8.1 mph /  13 km/h 71 % 0.00 in /  0 mm
06:03 21.1 °F /  -6.1 °C 12.8 °F /  -10.7 °C 30.00 in /  1015.8 hPa WNW 3.7 mph /  6 km/h 9.2 mph /  14.8 km/h 70 % 0.00 in /  0 mm
06:08 21.1 °F /  -6.1 °C 12.8 °F /  -10.7 °C 30.00 in /  1015.8 hPa WNW 4.9 mph /  7.9 km/h 11.5 mph /  18.5 km/h 70 % 0.00 in /  0 mm
06:13 21.0 °F /  -6.1 °C 12.7 °F /  -10.7 °C 30.01 in /  1016.1 hPa WNW 2.5 mph /  4 km/h 6.9 mph /  11.1 km/h 70 % 0.00 in /  0 mm
06:18 21.0 °F /  -6.1 °C 12.7 °F /  -10.7 °C 30.00 in /  1015.8 hPa WNW 2.2 mph /  3.5 km/h 6.9 mph /  11.1 km/h 70 % 0.00 in /  0 mm
06:23 20.9 °F /  -6.2 °C 12.6 °F /  -10.8 °C 30.01 in /  1016.1 hPa NW 0.7 mph /  1.1 km/h 3.5 mph /  5.6 km/h 70 % 0.00 in /  0 mm
06:28 20.9 °F /  -6.2 °C 12.6 °F /  -10.8 °C 30.01 in /  1016.1 hPa West 3.0 mph /  4.8 km/h 9.2 mph /  14.8 km/h 70 % 0.00 in /  0 mm
06:33 20.8 °F /  -6.2 °C 12.2 °F /  -11 °C 30.02 in /  1016.5 hPa NW 7.7 mph /  12.4 km/h 9.2 mph /  14.8 km/h 69 % 0.00 in /  0 mm
06:39 20.7 °F /  -6.3 °C 12.1 °F /  -11.1 °C 30.02 in /  1016.5 hPa West 5.1 mph /  8.2 km/h 13.0 mph /  20.9 km/h 69 % 0.00 in /  0 mm
06:44 20.7 °F /  -6.3 °C 12.1 °F /  -11.1 °C 30.03 in /  1016.8 hPa NNW 4.0 mph /  6.4 km/h 8.1 mph /  13 km/h 69 % 0.00 in /  0 mm
06:49 20.6 °F /  -6.3 °C 12.0 °F /  -11.1 °C 30.03 in /  1016.8 hPa NW 2.1 mph /  3.4 km/h 3.5 mph /  5.6 km/h 69 % 0.00 in /  0 mm
06:54 20.6 °F /  -6.3 °C 12.4 °F /  -10.9 °C 30.03 in /  1016.8 hPa West 2.8 mph /  4.5 km/h 6.9 mph /  11.1 km/h 70 % 0.00 in /  0 mm
06:59 20.6 °F /  -6.3 °C 12.4 °F /  -10.9 °C 30.03 in /  1016.8 hPa WNW 4.1 mph /  6.6 km/h 4.6 mph /  7.4 km/h 70 % 0.00 in /  0 mm
07:04 20.5 °F /  -6.4 °C 12.6 °F /  -10.8 °C 30.04 in /  1017.2 hPa West 2.5 mph /  4 km/h 5.8 mph /  9.3 km/h 71 % 0.00 in /  0 mm
07:09 20.4 °F /  -6.4 °C 12.5 °F /  -10.8 °C 30.03 in /  1016.8 hPa WNW 2.2 mph /  3.5 km/h 6.9 mph /  11.1 km/h 71 % 0.00 in /  0 mm
07:14 20.4 °F /  -6.4 °C 12.5 °F /  -10.8 °C 30.03 in /  1016.8 hPa West 3.6 mph /  5.8 km/h 10.4 mph /  16.7 km/h 71 % 0.00 in /  0 mm
07:19 20.3 °F /  -6.5 °C 12.1 °F /  -11.1 °C 30.04 in /  1017.2 hPa WNW 4.8 mph /  7.7 km/h 10.4 mph /  16.7 km/h 70 % 0.00 in /  0 mm
07:24 20.3 °F /  -6.5 °C 12.1 °F /  -11.1 °C 30.04 in /  1017.2 hPa WNW 2.5 mph /  4 km/h 5.8 mph /  9.3 km/h 70 % 0.00 in /  0 mm
07:29 20.2 °F /  -6.6 °C 12.0 °F /  -11.1 °C 30.04 in /  1017.2 hPa WNW 4.1 mph /  6.6 km/h 8.1 mph /  13 km/h 70 % 0.00 in /  0 mm
07:34 20.2 °F /  -6.6 °C 12.0 °F /  -11.1 °C 30.05 in /  1017.5 hPa West 5.9 mph /  9.5 km/h 11.5 mph /  18.5 km/h 70 % 0.00 in /  0 mm
07:39 20.2 °F /  -6.6 °C 12.3 °F /  -10.9 °C 30.05 in /  1017.5 hPa WNW 4.9 mph /  7.9 km/h 8.1 mph /  13 km/h 71 % 0.00 in /  0 mm
07:44 20.2 °F /  -6.6 °C 12.3 °F /  -10.9 °C 30.06 in /  1017.8 hPa West 5.6 mph /  9 km/h 8.1 mph /  13 km/h 71 % 0.00 in /  0 mm
07:49 20.2 °F /  -6.6 °C 12.0 °F /  -11.1 °C 30.06 in /  1017.8 hPa SW 2.7 mph /  4.3 km/h 11.5 mph /  18.5 km/h 70 % 0.00 in /  0 mm
07:54 20.3 °F /  -6.5 °C 12.4 °F /  -10.9 °C 30.06 in /  1017.8 hPa WNW 2.8 mph /  4.5 km/h 10.4 mph /  16.7 km/h 71 % 0.00 in /  0 mm
07:59 20.3 °F /  -6.5 °C 12.4 °F /  -10.9 °C 30.06 in /  1017.8 hPa WSW 4.2 mph /  6.8 km/h 6.9 mph /  11.1 km/h 71 % 0.00 in /  0 mm
08:05 20.4 °F /  -6.4 °C 12.5 °F /  -10.8 °C 30.06 in /  1017.8 hPa WSW 3.1 mph /  5 km/h 5.8 mph /  9.3 km/h 71 % 0.00 in /  0 mm
08:10 20.5 °F /  -6.4 °C 12.6 °F /  -10.8 °C 30.06 in /  1017.8 hPa WNW 1.0 mph /  1.6 km/h 3.5 mph /  5.6 km/h 71 % 0.00 in /  0 mm
08:15 20.7 °F /  -6.3 °C 12.8 °F /  -10.7 °C 30.06 in /  1017.8 hPa WSW 3.9 mph /  6.3 km/h 7.0 mph /  11.3 km/h 71 % 0.00 in /  0 mm
08:20 20.8 °F /  -6.2 °C 12.6 °F /  -10.8 °C 30.06 in /  1017.8 hPa WNW 4.3 mph /  6.9 km/h 9.2 mph /  14.8 km/h 70 % 0.00 in /  0 mm
08:25 21.0 °F /  -6.1 °C 12.7 °F /  -10.7 °C 30.06 in /  1017.8 hPa WNW 2.3 mph /  3.7 km/h 9.2 mph /  14.8 km/h 70 % 0.00 in /  0 mm
08:30 21.2 °F /  -6 °C 12.9 °F /  -10.6 °C 30.06 in /  1017.8 hPa West 4.3 mph /  6.9 km/h 10.4 mph /  16.7 km/h 70 % 0.00 in /  0 mm
08:35 21.4 °F /  -5.9 °C 12.8 °F /  -10.7 °C 30.06 in /  1017.8 hPa WNW 3.5 mph /  5.6 km/h 6.9 mph /  11.1 km/h 69 % 0.00 in /  0 mm
08:40 21.5 °F /  -5.8 °C 12.6 °F /  -10.8 °C 30.05 in /  1017.5 hPa NW 4.8 mph /  7.7 km/h 8.1 mph /  13 km/h 68 % 0.00 in /  0 mm
08:45 21.7 °F /  -5.7 °C 12.4 °F /  -10.9 °C 30.06 in /  1017.8 hPa West 5.4 mph /  8.7 km/h 9.2 mph /  14.8 km/h 67 % 0.00 in /  0 mm
08:50 21.9 °F /  -5.6 °C 12.6 °F /  -10.8 °C 30.05 in /  1017.5 hPa WNW 3.1 mph /  5 km/h 6.9 mph /  11.1 km/h 67 % 0.00 in /  0 mm
08:55 22.2 °F /  -5.4 °C 12.9 °F /  -10.6 °C 30.05 in /  1017.5 hPa WNW 1.2 mph /  1.9 km/h 4.0 mph /  6.4 km/h 67 % 0.00 in /  0 mm
09:00 22.6 °F /  -5.2 °C 13.3 °F /  -10.4 °C 30.05 in /  1017.5 hPa WNW 5.8 mph /  9.3 km/h 9.2 mph /  14.8 km/h 67 % 0.00 in /  0 mm
09:05 23.0 °F /  -5 °C 13.3 °F /  -10.4 °C 30.05 in /  1017.5 hPa WNW 2.9 mph /  4.7 km/h 4.6 mph /  7.4 km/h 66 % 0.00 in /  0 mm
09:10 23.4 °F /  -4.8 °C 13.4 °F /  -10.3 °C 30.05 in /  1017.5 hPa West 1.9 mph /  3.1 km/h 9.2 mph /  14.8 km/h 65 % 0.00 in /  0 mm
09:15 23.8 °F /  -4.6 °C 13.4 °F /  -10.3 °C 30.05 in /  1017.5 hPa WNW 2.5 mph /  4 km/h 6.9 mph /  11.1 km/h 64 % 0.00 in /  0 mm
09:20 24.0 °F /  -4.4 °C 13.9 °F /  -10.1 °C 30.06 in /  1017.8 hPa WNW 5.2 mph /  8.4 km/h 6.9 mph /  11.1 km/h 65 % 0.00 in /  0 mm
09:25 24.2 °F /  -4.3 °C 13.8 °F /  -10.1 °C 30.05 in /  1017.5 hPa WNW 2.4 mph /  3.9 km/h 4.6 mph /  7.4 km/h 64 % 0.00 in /  0 mm
09:31 24.4 °F /  -4.2 °C 14.0 °F /  -10 °C 30.05 in /  1017.5 hPa WNW 2.2 mph /  3.5 km/h 3.5 mph /  5.6 km/h 64 % 0.00 in /  0 mm
09:36 24.5 °F /  -4.2 °C 13.7 °F /  -10.2 °C 30.06 in /  1017.8 hPa NW 3.0 mph /  4.8 km/h 12.0 mph /  19.3 km/h 63 % 0.00 in /  0 mm
09:41 24.8 °F /  -4 °C 14.0 °F /  -10 °C 30.05 in /  1017.5 hPa NW 2.0 mph /  3.2 km/h 10.0 mph /  16.1 km/h 63 % 0.00 in /  0 mm
09:46 25.0 °F /  -3.9 °C 14.2 °F /  -9.9 °C 30.04 in /  1017.2 hPa WNW 5.0 mph /  8 km/h 9.0 mph /  14.5 km/h 63 % 0.00 in /  0 mm
09:51 25.3 °F /  -3.7 °C 14.8 °F /  -9.6 °C 30.05 in /  1017.5 hPa West 2.0 mph /  3.2 km/h 5.0 mph /  8 km/h 64 % 0.00 in /  0 mm
09:56 25.6 °F /  -3.6 °C 14.7 °F /  -9.6 °C 30.04 in /  1017.2 hPa West 3.3 mph /  5.3 km/h 5.8 mph /  9.3 km/h 63 % 0.00 in /  0 mm
10:01 25.9 °F /  -3.4 °C 15.0 °F /  -9.4 °C 30.05 in /  1017.5 hPa West 2.5 mph /  4 km/h 6.9 mph /  11.1 km/h 63 % 0.00 in /  0 mm
10:06 26.3 °F /  -3.2 °C 15.0 °F /  -9.4 °C 30.04 in /  1017.2 hPa NW 5.2 mph /  8.4 km/h 9.2 mph /  14.8 km/h 62 % 0.00 in /  0 mm
10:11 26.4 °F /  -3.1 °C 14.8 °F /  -9.6 °C 30.03 in /  1016.8 hPa West 1.0 mph /  1.6 km/h 3.5 mph /  5.6 km/h 61 % 0.00 in /  0 mm
10:16 26.7 °F /  -2.9 °C 15.0 °F /  -9.4 °C 30.03 in /  1016.8 hPa WNW 4.0 mph /  6.4 km/h 6.0 mph /  9.7 km/h 61 % 0.00 in /  0 mm
10:21 26.8 °F /  -2.9 °C 14.8 °F /  -9.6 °C 30.03 in /  1016.8 hPa West 3.4 mph /  5.5 km/h 4.6 mph /  7.4 km/h 60 % 0.00 in /  0 mm
10:26 27.1 °F /  -2.7 °C 15.0 °F /  -9.4 °C 30.01 in /  1016.1 hPa SSW 3.7 mph /  6 km/h 6.9 mph /  11.1 km/h 60 % 0.00 in /  0 mm
10:31 27.7 °F /  -2.4 °C 16.7 °F /  -8.5 °C 30.02 in /  1016.5 hPa NNW 1.6 mph /  2.6 km/h 3.5 mph /  5.6 km/h 63 % 0.00 in /  0 mm
10:36 28.0 °F /  -2.2 °C 15.5 °F /  -9.2 °C 30.01 in /  1016.1 hPa NNW 3.2 mph /  5.1 km/h 5.8 mph /  9.3 km/h 59 % 0.00 in /  0 mm
10:41 27.9 °F /  -2.3 °C 15.4 °F /  -9.2 °C 30.01 in /  1016.1 hPa NW 1.9 mph /  3.1 km/h 4.6 mph /  7.4 km/h 59 % 0.00 in /  0 mm
10:46 27.8 °F /  -2.3 °C 15.7 °F /  -9.1 °C 30.02 in /  1016.5 hPa WNW 4.7 mph /  7.6 km/h 6.9 mph /  11.1 km/h 60 % 0.00 in /  0 mm
10:51 27.7 °F /  -2.4 °C 14.8 °F /  -9.6 °C 30.02 in /  1016.5 hPa WNW 2.9 mph /  4.7 km/h 8.1 mph /  13 km/h 58 % 0.00 in /  0 mm
10:56 27.8 °F /  -2.3 °C 15.7 °F /  -9.1 °C 30.01 in /  1016.1 hPa NW 4.4 mph /  7.1 km/h 5.8 mph /  9.3 km/h 60 % 0.00 in /  0 mm
11:01 27.9 °F /  -2.3 °C 15.4 °F /  -9.2 °C 30.02 in /  1016.5 hPa WSW 4.7 mph /  7.6 km/h 6.0 mph /  9.7 km/h 59 % 0.00 in /  0 mm
11:06 27.9 °F /  -2.3 °C 15.0 °F /  -9.4 °C 30.02 in /  1016.5 hPa NW 2.2 mph /  3.5 km/h 9.2 mph /  14.8 km/h 58 % 0.00 in /  0 mm
11:11 27.8 °F /  -2.3 °C 14.9 °F /  -9.5 °C 30.01 in /  1016.1 hPa West 5.2 mph /  8.4 km/h 6.9 mph /  11.1 km/h 58 % 0.00 in /  0 mm
11:16 27.8 °F /  -2.3 °C 14.9 °F /  -9.5 °C 30.01 in /  1016.1 hPa NNW 2.4 mph /  3.9 km/h 4.6 mph /  7.4 km/h 58 % 0.00 in /  0 mm
11:21 27.9 °F /  -2.3 °C 15.0 °F /  -9.4 °C 30.01 in /  1016.1 hPa NW 3.2 mph /  5.1 km/h 6.9 mph /  11.1 km/h 58 % 0.00 in /  0 mm
11:26 27.9 °F /  -2.3 °C 15.0 °F /  -9.4 °C 30.02 in /  1016.5 hPa WNW 4.3 mph /  6.9 km/h 8.1 mph /  13 km/h 58 % 0.00 in /  0 mm
11:31 27.8 °F /  -2.3 °C 14.9 °F /  -9.5 °C 30.02 in /  1016.5 hPa SW 6.1 mph /  9.8 km/h 10.4 mph /  16.7 km/h 58 % 0.00 in /  0 mm
11:36 27.6 °F /  -2.4 °C 14.7 °F /  -9.6 °C 30.02 in /  1016.5 hPa WSW 3.7 mph /  6 km/h 6.0 mph /  9.7 km/h 58 % 0.00 in /  0 mm
11:39 27.6 °F /  -2.4 °C 15.1 °F /  -9.4 °C 30.02 in /  1016.5 hPa WNW 2.7 mph /  4.3 km/h 8.1 mph /  13 km/h 59 % 0.00 in /  0 mm
11:44 27.6 °F /  -2.4 °C 15.1 °F /  -9.4 °C 30.02 in /  1016.5 hPa WNW 4.7 mph /  7.6 km/h 6.9 mph /  11.1 km/h 59 % 0.00 in /  0 mm
11:49 27.5 °F /  -2.5 °C 15.4 °F /  -9.2 °C 30.02 in /  1016.5 hPa NW 2.4 mph /  3.9 km/h 4.6 mph /  7.4 km/h 60 % 0.00 in /  0 mm
11:54 27.5 °F /  -2.5 °C 15.8 °F /  -9 °C 30.01 in /  1016.1 hPa WSW 3.9 mph /  6.3 km/h 8.0 mph /  12.9 km/h 61 % 0.00 in /  0 mm
11:59 27.1 °F /  -2.7 °C 15.4 °F /  -9.2 °C 30.00 in /  1015.8 hPa WSW 9.2 mph /  14.8 km/h 11.5 mph /  18.5 km/h 61 % 0.00 in /  0 mm
12:04 26.9 °F /  -2.8 °C 14.9 °F /  -9.5 °C 30.00 in /  1015.8 hPa SW 4.8 mph /  7.7 km/h 9.2 mph /  14.8 km/h 60 % 0.00 in /  0 mm
12:09 26.8 °F /  -2.9 °C 15.1 °F /  -9.4 °C 30.00 in /  1015.8 hPa WSW 3.8 mph /  6.1 km/h 7.0 mph /  11.3 km/h 61 % 0.00 in /  0 mm
12:14 26.9 °F /  -2.8 °C 15.6 °F /  -9.1 °C 30.00 in /  1015.8 hPa WNW 4.2 mph /  6.8 km/h 6.9 mph /  11.1 km/h 62 % 0.00 in /  0 mm
12:19 27.0 °F /  -2.8 °C 15.3 °F /  -9.3 °C 29.99 in /  1015.5 hPa WSW 5.2 mph /  8.4 km/h 7.0 mph /  11.3 km/h 61 % 0.00 in /  0 mm
12:24 27.3 °F /  -2.6 °C 15.2 °F /  -9.3 °C 29.98 in /  1015.1 hPa WSW 3.8 mph /  6.1 km/h 8.1 mph /  13 km/h 60 % 0.00 in /  0 mm
12:30 27.5 °F /  -2.5 °C 15.0 °F /  -9.4 °C 29.98 in /  1015.1 hPa NW 7.7 mph /  12.4 km/h 11.5 mph /  18.5 km/h 59 % 0.00 in /  0 mm
12:35 27.7 °F /  -2.4 °C 15.6 °F /  -9.1 °C 29.98 in /  1015.1 hPa SSW 4.6 mph /  7.4 km/h 8.1 mph /  13 km/h 60 % 0.00 in /  0 mm
12:40 27.9 °F /  -2.3 °C 16.2 °F /  -8.8 °C 29.98 in /  1015.1 hPa WSW 2.9 mph /  4.7 km/h 8.1 mph /  13 km/h 61 % 0.00 in /  0 mm
12:45 28.1 °F /  -2.2 °C 16.0 °F /  -8.9 °C 29.97 in /  1014.8 hPa SW 4.9 mph /  7.9 km/h 9.2 mph /  14.8 km/h 60 % 0.00 in /  0 mm
12:50 28.1 °F /  -2.2 °C 15.2 °F /  -9.3 °C 29.97 in /  1014.8 hPa SW 3.8 mph /  6.1 km/h 6.0 mph /  9.7 km/h 58 % 0.00 in /  0 mm
12:55 28.4 °F /  -2 °C 15.5 °F /  -9.2 °C 29.97 in /  1014.8 hPa WSW 5.2 mph /  8.4 km/h 9.2 mph /  14.8 km/h 58 % 0.00 in /  0 mm
13:00 28.5 °F /  -1.9 °C 15.2 °F /  -9.3 °C 29.97 in /  1014.8 hPa West 3.1 mph /  5 km/h 11.5 mph /  18.5 km/h 57 % 0.00 in /  0 mm
13:05 28.7 °F /  -1.8 °C 15.4 °F /  -9.2 °C 29.96 in /  1014.4 hPa WSW 3.3 mph /  5.3 km/h 8.1 mph /  13 km/h 57 % 0.00 in /  0 mm
13:10 28.9 °F /  -1.7 °C 15.6 °F /  -9.1 °C 29.95 in /  1014.1 hPa WSW 2.2 mph /  3.5 km/h 5.0 mph /  8 km/h 57 % 0.00 in /  0 mm
13:15 29.1 °F /  -1.6 °C 14.9 °F /  -9.5 °C 29.94 in /  1013.8 hPa WNW 1.7 mph /  2.7 km/h 4.0 mph /  6.4 km/h 55 % 0.00 in /  0 mm
13:20 29.2 °F /  -1.6 °C 14.6 °F /  -9.7 °C 29.94 in /  1013.8 hPa West 2.0 mph /  3.2 km/h 5.0 mph /  8 km/h 54 % 0.00 in /  0 mm
13:25 29.6 °F /  -1.3 °C 15.8 °F /  -9 °C 29.94 in /  1013.8 hPa West 3.2 mph /  5.1 km/h 4.0 mph /  6.4 km/h 56 % 0.00 in /  0 mm
13:30 30.1 °F /  -1.1 °C 16.7 °F /  -8.5 °C 29.93 in /  1013.4 hPa WSW 0.3 mph /  0.5 km/h 1.2 mph /  1.9 km/h 57 % 0.00 in /  0 mm
13:35 30.7 °F /  -0.7 °C 17.3 °F /  -8.2 °C 29.94 in /  1013.8 hPa WSW 1.9 mph /  3.1 km/h 3.0 mph /  4.8 km/h 57 % 0.00 in /  0 mm
13:40 31.0 °F /  -0.6 °C 16.3 °F /  -8.7 °C 29.93 in /  1013.4 hPa WNW 2.7 mph /  4.3 km/h 4.6 mph /  7.4 km/h 54 % 0.00 in /  0 mm
13:45 31.1 °F /  -0.5 °C 15.9 °F /  -8.9 °C 29.93 in /  1013.4 hPa West 1.9 mph /  3.1 km/h 5.0 mph /  8 km/h 53 % 0.00 in /  0 mm
13:50 31.3 °F /  -0.4 °C 16.6 °F /  -8.6 °C 29.92 in /  1013.1 hPa WSW 3.1 mph /  5 km/h 4.0 mph /  6.4 km/h 54 % 0.00 in /  0 mm
13:55 31.6 °F /  -0.2 °C 17.3 °F /  -8.2 °C 29.92 in /  1013.1 hPa West 1.8 mph /  2.9 km/h 3.5 mph /  5.6 km/h 55 % 0.00 in /  0 mm
14:00 31.7 °F /  -0.2 °C 16.1 °F /  -8.8 °C 29.92 in /  1013.1 hPa West 0.4 mph /  0.6 km/h 4.6 mph /  7.4 km/h 52 % 0.00 in /  0 mm
14:06 31.9 °F /  -0.1 °C 15.8 °F /  -9 °C 29.91 in /  1012.8 hPa WNW 2.0 mph /  3.2 km/h 6.0 mph /  9.7 km/h 51 % 0.00 in /  0 mm
14:11 32.0 °F /  0 °C 16.3 °F /  -8.7 °C 29.92 in /  1013.1 hPa West 2.0 mph /  3.2 km/h 7.0 mph /  11.3 km/h 52 % 0.00 in /  0 mm
14:16 32.2 °F /  0.1 °C 16.5 °F /  -8.6 °C 29.91 in /  1012.8 hPa WSW 1.0 mph /  1.6 km/h 4.0 mph /  6.4 km/h 52 % 0.00 in /  0 mm
14:21 32.4 °F /  0.2 °C 16.7 °F /  -8.5 °C 29.92 in /  1013.1 hPa WSW 2.0 mph /  3.2 km/h 4.0 mph /  6.4 km/h 52 % 0.00 in /  0 mm
14:26 32.6 °F /  0.3 °C 16.0 °F /  -8.9 °C 29.91 in /  1012.8 hPa SW 1.0 mph /  1.6 km/h 6.0 mph /  9.7 km/h 50 % 0.00 in /  0 mm
14:31 32.7 °F /  0.4 °C 15.6 °F /  -9.1 °C 29.92 in /  1013.1 hPa WSW 4.4 mph /  7.1 km/h 5.8 mph /  9.3 km/h 49 % 0.00 in /  0 mm
14:36 32.8 °F /  0.4 °C 16.2 °F /  -8.8 °C 29.91 in /  1012.8 hPa SW 5.0 mph /  8 km/h 7.0 mph /  11.3 km/h 50 % 0.00 in /  0 mm
14:41 32.8 °F /  0.4 °C 15.7 °F /  -9.1 °C 29.91 in /  1012.8 hPa WSW 2.0 mph /  3.2 km/h 4.0 mph /  6.4 km/h 49 % 0.00 in /  0 mm
14:46 32.8 °F /  0.4 °C 15.7 °F /  -9.1 °C 29.91 in /  1012.8 hPa West 1.0 mph /  1.6 km/h 6.0 mph /  9.7 km/h 49 % 0.00 in /  0 mm
14:51 32.7 °F /  0.4 °C 15.2 °F /  -9.3 °C 29.91 in /  1012.8 hPa WSW 2.0 mph /  3.2 km/h 5.0 mph /  8 km/h 48 % 0.00 in /  0 mm
14:56 32.6 °F /  0.3 °C 15.5 °F /  -9.2 °C 29.91 in /  1012.8 hPa WSW 2.0 mph /  3.2 km/h 6.0 mph /  9.7 km/h 49 % 0.00 in /  0 mm
15:01 32.5 °F /  0.3 °C 15.9 °F /  -8.9 °C 29.91 in /  1012.8 hPa Calm     50 % 0.00 in /  0 mm
15:06 32.4 °F /  0.2 °C 14.9 °F /  -9.5 °C 29.91 in /  1012.8 hPa West 0.5 mph /  0.8 km/h 2.3 mph /  3.7 km/h 48 % 0.00 in /  0 mm
15:11 32.4 °F /  0.2 °C 14.9 °F /  -9.5 °C 29.91 in /  1012.8 hPa WSW 1.4 mph /  2.3 km/h 3.5 mph /  5.6 km/h 48 % 0.00 in /  0 mm
15:16 32.4 °F /  0.2 °C 14.9 °F /  -9.5 °C 29.91 in /  1012.8 hPa WSW 2.1 mph /  3.4 km/h 3.5 mph /  5.6 km/h 48 % 0.00 in /  0 mm
15:21 32.5 °F /  0.3 °C 14.5 °F /  -9.7 °C 29.91 in /  1012.8 hPa WNW 3.3 mph /  5.3 km/h 5.8 mph /  9.3 km/h 47 % 0.00 in /  0 mm
15:26 32.5 °F /  0.3 °C 15.9 °F /  -8.9 °C 29.91 in /  1012.8 hPa WNW 0.5 mph /  0.8 km/h 2.3 mph /  3.7 km/h 50 % 0.00 in /  0 mm
15:31 32.6 °F /  0.3 °C 15.1 °F /  -9.4 °C 29.91 in /  1012.8 hPa West 1.9 mph /  3.1 km/h 5.0 mph /  8 km/h 48 % 0.00 in /  0 mm
15:36 32.6 °F /  0.3 °C 14.6 °F /  -9.7 °C 29.91 in /  1012.8 hPa West 0.6 mph /  1 km/h 2.3 mph /  3.7 km/h 47 % 0.00 in /  0 mm
15:41 32.7 °F /  0.4 °C 15.1 °F /  -9.4 °C 29.89 in /  1012.1 hPa West 1.3 mph /  2.1 km/h 4.0 mph /  6.4 km/h 48 % 0.00 in /  0 mm
15:46 32.7 °F /  0.4 °C 15.1 °F /  -9.4 °C 29.90 in /  1012.4 hPa West 0.7 mph /  1.1 km/h 3.5 mph /  5.6 km/h 48 % 0.00 in /  0 mm
15:51 32.8 °F /  0.4 °C 15.2 °F /  -9.3 °C 29.90 in /  1012.4 hPa SSW 4.2 mph /  6.8 km/h 6.9 mph /  11.1 km/h 48 % 0.00 in /  0 mm
15:57 32.7 °F /  0.4 °C 14.7 °F /  -9.6 °C 29.90 in /  1012.4 hPa SW 5.3 mph /  8.5 km/h 6.0 mph /  9.7 km/h 47 % 0.00 in /  0 mm
16:02 32.7 °F /  0.4 °C 13.7 °F /  -10.2 °C 29.90 in /  1012.4 hPa SW 2.9 mph /  4.7 km/h 4.6 mph /  7.4 km/h 45 % 0.00 in /  0 mm
16:07 32.6 °F /  0.3 °C 14.1 °F /  -9.9 °C 29.90 in /  1012.4 hPa SW 4.8 mph /  7.7 km/h 6.9 mph /  11.1 km/h 46 % 0.00 in /  0 mm
16:12 32.6 °F /  0.3 °C 14.6 °F /  -9.7 °C 29.90 in /  1012.4 hPa SSW 4.3 mph /  6.9 km/h 6.9 mph /  11.1 km/h 47 % 0.00 in /  0 mm
16:17 32.6 °F /  0.3 °C 15.1 °F /  -9.4 °C 29.90 in /  1012.4 hPa SW 1.7 mph /  2.7 km/h 3.5 mph /  5.6 km/h 48 % 0.00 in /  0 mm
16:22 32.5 °F /  0.3 °C 15.9 °F /  -8.9 °C 29.90 in /  1012.4 hPa SSW 4.2 mph /  6.8 km/h 8.0 mph /  12.9 km/h 50 % 0.00 in /  0 mm
16:27 32.4 °F /  0.2 °C 16.3 °F /  -8.7 °C 29.89 in /  1012.1 hPa SSW 0.9 mph /  1.4 km/h 3.5 mph /  5.6 km/h 51 % 0.00 in /  0 mm
16:32 32.3 °F /  0.2 °C 16.6 °F /  -8.6 °C 29.89 in /  1012.1 hPa SSW 5.0 mph /  8 km/h 7.0 mph /  11.3 km/h 52 % 0.00 in /  0 mm
16:37 32.1 °F /  0.1 °C 16.0 °F /  -8.9 °C 29.89 in /  1012.1 hPa SW 1.0 mph /  1.6 km/h 5.8 mph /  9.3 km/h 51 % 0.00 in /  0 mm
16:42 32.0 °F /  0 °C 16.8 °F /  -8.4 °C 29.89 in /  1012.1 hPa SSW 3.6 mph /  5.8 km/h 4.6 mph /  7.4 km/h 53 % 0.00 in /  0 mm
16:47 31.7 °F /  -0.2 °C 16.1 °F /  -8.8 °C 29.88 in /  1011.7 hPa SSW 1.8 mph /  2.9 km/h 4.6 mph /  7.4 km/h 52 % 0.00 in /  0 mm
16:52 31.5 °F /  -0.3 °C 15.9 °F /  -8.9 °C 29.88 in /  1011.7 hPa South 2.8 mph /  4.5 km/h 4.6 mph /  7.4 km/h 52 % 0.00 in /  0 mm
16:57 31.1 °F /  -0.5 °C 15.5 °F /  -9.2 °C 29.88 in /  1011.7 hPa South 0.7 mph /  1.1 km/h 3.5 mph /  5.6 km/h 52 % 0.00 in /  0 mm
17:02 30.9 °F /  -0.6 °C 16.2 °F /  -8.8 °C 29.88 in /  1011.7 hPa SSW 2.6 mph /  4.2 km/h 6.9 mph /  11.1 km/h 54 % 0.00 in /  0 mm
17:07 30.7 °F /  -0.7 °C 16.4 °F /  -8.7 °C 29.88 in /  1011.7 hPa South 5.4 mph /  8.7 km/h 7.0 mph /  11.3 km/h 55 % 0.00 in /  0 mm
17:13 30.5 °F /  -0.8 °C 17.1 °F /  -8.3 °C 29.88 in /  1011.7 hPa South 3.8 mph /  6.1 km/h 7.0 mph /  11.3 km/h 57 % 0.00 in /  0 mm
17:18 30.4 °F /  -0.9 °C 17.0 °F /  -8.3 °C 29.87 in /  1011.4 hPa South 5.4 mph /  8.7 km/h 8.1 mph /  13 km/h 57 % 0.00 in /  0 mm
17:23 30.1 °F /  -1.1 °C 17.1 °F /  -8.3 °C 29.87 in /  1011.4 hPa South 2.0 mph /  3.2 km/h 6.0 mph /  9.7 km/h 58 % 0.00 in /  0 mm
17:28 29.9 °F /  -1.2 °C 17.3 °F /  -8.2 °C 29.87 in /  1011.4 hPa SSW 4.2 mph /  6.8 km/h 8.1 mph /  13 km/h 59 % 0.00 in /  0 mm
17:33 29.8 °F /  -1.2 °C 17.2 °F /  -8.2 °C 29.87 in /  1011.4 hPa SSW 3.7 mph /  6 km/h 5.0 mph /  8 km/h 59 % 0.00 in /  0 mm
17:38 29.6 °F /  -1.3 °C 17.4 °F /  -8.1 °C 29.87 in /  1011.4 hPa South 3.3 mph /  5.3 km/h 6.0 mph /  9.7 km/h 60 % 0.00 in /  0 mm
17:43 29.5 °F /  -1.4 °C 17.7 °F /  -7.9 °C 29.86 in /  1011.1 hPa South 4.6 mph /  7.4 km/h 6.9 mph /  11.1 km/h 61 % 0.00 in /  0 mm
17:48 29.3 °F /  -1.5 °C 17.9 °F /  -7.8 °C 29.87 in /  1011.4 hPa South 2.7 mph /  4.3 km/h 4.6 mph /  7.4 km/h 62 % 0.00 in /  0 mm
17:53 29.2 °F /  -1.6 °C 17.8 °F /  -7.9 °C 29.87 in /  1011.4 hPa South 3.4 mph /  5.5 km/h 5.8 mph /  9.3 km/h 62 % 0.00 in /  0 mm
17:58 29.1 °F /  -1.6 °C 18.1 °F /  -7.7 °C 29.87 in /  1011.4 hPa SSW 2.6 mph /  4.2 km/h 5.8 mph /  9.3 km/h 63 % 0.00 in /  0 mm
18:03 29.0 °F /  -1.7 °C 18.0 °F /  -7.8 °C 29.86 in /  1011.1 hPa South 1.9 mph /  3.1 km/h 4.0 mph /  6.4 km/h 63 % 0.00 in /  0 mm
18:08 28.9 °F /  -1.7 °C 18.2 °F /  -7.7 °C 29.86 in /  1011.1 hPa SSW 1.2 mph /  1.9 km/h 3.5 mph /  5.6 km/h 64 % 0.00 in /  0 mm
18:13 28.8 °F /  -1.8 °C 18.1 °F /  -7.7 °C 29.86 in /  1011.1 hPa SW 1.1 mph /  1.8 km/h 3.5 mph /  5.6 km/h 64 % 0.00 in /  0 mm
18:18 28.8 °F /  -1.8 °C 18.5 °F /  -7.5 °C 29.86 in /  1011.1 hPa SW 3.1 mph /  5 km/h 5.8 mph /  9.3 km/h 65 % 0.00 in /  0 mm
18:23 28.7 °F /  -1.8 °C 18.8 °F /  -7.3 °C 29.85 in /  1010.7 hPa SSW 2.9 mph /  4.7 km/h 3.5 mph /  5.6 km/h 66 % 0.00 in /  0 mm
18:28 28.7 °F /  -1.8 °C 18.8 °F /  -7.3 °C 29.85 in /  1010.7 hPa South 1.9 mph /  3.1 km/h 3.5 mph /  5.6 km/h 66 % 0.00 in /  0 mm
18:33 28.6 °F /  -1.9 °C 19.0 °F /  -7.2 °C 29.84 in /  1010.4 hPa South 4.0 mph /  6.4 km/h 5.8 mph /  9.3 km/h 67 % 0.00 in /  0 mm
18:38 28.6 °F /  -1.9 °C 18.7 °F /  -7.4 °C 29.84 in /  1010.4 hPa SSW 1.0 mph /  1.6 km/h 3.5 mph /  5.6 km/h 66 % 0.00 in /  0 mm
18:43 28.6 °F /  -1.9 °C 19.0 °F /  -7.2 °C 29.85 in /  1010.7 hPa South 1.7 mph /  2.7 km/h 5.8 mph /  9.3 km/h 67 % 0.00 in /  0 mm
18:49 28.6 °F /  -1.9 °C 19.0 °F /  -7.2 °C 29.85 in /  1010.7 hPa South 3.3 mph /  5.3 km/h 4.0 mph /  6.4 km/h 67 % 0.00 in /  0 mm
18:54 28.6 °F /  -1.9 °C 19.0 °F /  -7.2 °C 29.84 in /  1010.4 hPa South 1.2 mph /  1.9 km/h 3.5 mph /  5.6 km/h 67 % 0.00 in /  0 mm
18:59 28.7 °F /  -1.8 °C 19.1 °F /  -7.2 °C 29.84 in /  1010.4 hPa South 2.5 mph /  4 km/h 4.6 mph /  7.4 km/h 67 % 0.00 in /  0 mm
19:04 28.7 °F /  -1.8 °C 19.5 °F /  -6.9 °C 29.84 in /  1010.4 hPa SSW 2.2 mph /  3.5 km/h 3.5 mph /  5.6 km/h 68 % 0.00 in /  0 mm
19:09 28.8 °F /  -1.8 °C 19.9 °F /  -6.7 °C 29.84 in /  1010.4 hPa South 4.4 mph /  7.1 km/h 6.0 mph /  9.7 km/h 69 % 0.00 in /  0 mm
19:14 28.8 °F /  -1.8 °C 19.9 °F /  -6.7 °C 29.84 in /  1010.4 hPa South 2.1 mph /  3.4 km/h 3.5 mph /  5.6 km/h 69 % 0.00 in /  0 mm
19:19 28.9 °F /  -1.7 °C 20.3 °F /  -6.5 °C 29.84 in /  1010.4 hPa WSW 2.5 mph /  4 km/h 3.5 mph /  5.6 km/h 70 % 0.00 in /  0 mm
19:24 29.0 °F /  -1.7 °C 20.8 °F /  -6.2 °C 29.83 in /  1010 hPa SSW 2.0 mph /  3.2 km/h 3.5 mph /  5.6 km/h 71 % 0.00 in /  0 mm
19:29 29.0 °F /  -1.7 °C 21.1 °F /  -6.1 °C 29.83 in /  1010 hPa SSW 2.9 mph /  4.7 km/h 5.8 mph /  9.3 km/h 72 % 0.00 in /  0 mm
19:34 29.1 °F /  -1.6 °C 21.2 °F /  -6 °C 29.83 in /  1010 hPa SSW 2.8 mph /  4.5 km/h 4.6 mph /  7.4 km/h 72 % 0.00 in /  0 mm
19:39 29.2 °F /  -1.6 °C 21.6 °F /  -5.8 °C 29.83 in /  1010 hPa SSW 4.3 mph /  6.9 km/h 5.8 mph /  9.3 km/h 73 % 0.00 in /  0 mm
19:44 29.3 °F /  -1.5 °C 22.0 °F /  -5.6 °C 29.83 in /  1010 hPa SW 4.5 mph /  7.2 km/h 7.0 mph /  11.3 km/h 74 % 0.00 in /  0 mm
19:49 29.4 °F /  -1.4 °C 22.1 °F /  -5.5 °C 29.83 in /  1010 hPa SSW 5.0 mph /  8 km/h 9.2 mph /  14.8 km/h 74 % 0.00 in /  0 mm
19:54 29.5 °F /  -1.4 °C 22.6 °F /  -5.2 °C 29.82 in /  1009.7 hPa South 2.9 mph /  4.7 km/h 6.9 mph /  11.1 km/h 75 % 0.00 in /  0 mm
19:59 29.7 °F /  -1.3 °C 22.7 °F /  -5.2 °C 29.82 in /  1009.7 hPa SSW 4.1 mph /  6.6 km/h 8.1 mph /  13 km/h 75 % 0.00 in /  0 mm
20:04 29.8 °F /  -1.2 °C 22.8 °F /  -5.1 °C 29.82 in /  1009.7 hPa WSW 4.4 mph /  7.1 km/h 7.0 mph /  11.3 km/h 75 % 0.00 in /  0 mm
20:09 29.9 °F /  -1.2 °C 22.9 °F /  -5.1 °C 29.81 in /  1009.4 hPa SSW 4.4 mph /  7.1 km/h 9.2 mph /  14.8 km/h 75 % 0.00 in /  0 mm
20:15 30.0 °F /  -1.1 °C 23.0 °F /  -5 °C 29.82 in /  1009.7 hPa South 5.8 mph /  9.3 km/h 6.0 mph /  9.7 km/h 75 % 0.00 in /  0 mm
20:20 30.1 °F /  -1.1 °C 23.1 °F /  -4.9 °C 29.82 in /  1009.7 hPa WSW 2.9 mph /  4.7 km/h 5.8 mph /  9.3 km/h 75 % 0.00 in /  0 mm
20:25 30.3 °F /  -0.9 °C 23.3 °F /  -4.8 °C 29.82 in /  1009.7 hPa SW 1.8 mph /  2.9 km/h 5.8 mph /  9.3 km/h 75 % 0.00 in /  0 mm
20:30 30.4 °F /  -0.9 °C 23.4 °F /  -4.8 °C 29.82 in /  1009.7 hPa SW 5.3 mph /  8.5 km/h 9.2 mph /  14.8 km/h 75 % 0.00 in /  0 mm
20:35 30.5 °F /  -0.8 °C 23.5 °F /  -4.7 °C 29.82 in /  1009.7 hPa South 4.8 mph /  7.7 km/h 7.0 mph /  11.3 km/h 75 % 0.00 in /  0 mm
20:40 30.7 °F /  -0.7 °C 23.7 °F /  -4.6 °C 29.82 in /  1009.7 hPa SSW 4.0 mph /  6.4 km/h 8.1 mph /  13 km/h 75 % 0.00 in /  0 mm
20:45 30.8 °F /  -0.7 °C 23.8 °F /  -4.6 °C 29.81 in /  1009.4 hPa SSW 5.8 mph /  9.3 km/h 9.2 mph /  14.8 km/h 75 % 0.00 in /  0 mm
20:50 31.0 °F /  -0.6 °C 24.0 °F /  -4.4 °C 29.81 in /  1009.4 hPa SSW 3.0 mph /  4.8 km/h 4.0 mph /  6.4 km/h 75 % 0.00 in /  0 mm
20:55 31.2 °F /  -0.4 °C 24.2 °F /  -4.3 °C 29.81 in /  1009.4 hPa South 4.1 mph /  6.6 km/h 6.0 mph /  9.7 km/h 75 % 0.00 in /  0 mm
21:00 31.3 °F /  -0.4 °C 24.0 °F /  -4.4 °C 29.81 in /  1009.4 hPa South 6.9 mph /  11.1 km/h 11.5 mph /  18.5 km/h 74 % 0.00 in /  0 mm
21:05 31.4 °F /  -0.3 °C 24.1 °F /  -4.4 °C 29.81 in /  1009.4 hPa SSW 3.5 mph /  5.6 km/h 6.9 mph /  11.1 km/h 74 % 0.00 in /  0 mm
21:10 31.6 °F /  -0.2 °C 24.3 °F /  -4.3 °C 29.81 in /  1009.4 hPa SSW 9.1 mph /  14.6 km/h 17.3 mph /  27.8 km/h 74 % 0.00 in /  0 mm
21:15 31.7 °F /  -0.2 °C 24.0 °F /  -4.4 °C 29.81 in /  1009.4 hPa South 10.4 mph /  16.7 km/h 16.1 mph /  25.9 km/h 73 % 0.00 in /  0 mm
21:20 31.8 °F /  -0.1 °C 24.1 °F /  -4.4 °C 29.81 in /  1009.4 hPa SW 3.7 mph /  6 km/h 5.8 mph /  9.3 km/h 73 % 0.00 in /  0 mm
21:25 31.9 °F /  -0.1 °C 23.9 °F /  -4.5 °C 29.81 in /  1009.4 hPa SSW 8.8 mph /  14.2 km/h 16.1 mph /  25.9 km/h 72 % 0.00 in /  0 mm
21:30 31.9 °F /  -0.1 °C 23.9 °F /  -4.5 °C 29.81 in /  1009.4 hPa SSW 7.5 mph /  12.1 km/h 12.0 mph /  19.3 km/h 72 % 0.00 in /  0 mm
21:35 31.9 °F /  -0.1 °C 23.9 °F /  -4.5 °C 29.81 in /  1009.4 hPa SW 6.8 mph /  10.9 km/h 8.1 mph /  13 km/h 72 % 0.00 in /  0 mm
21:40 32.0 °F /  0 °C 24.0 °F /  -4.4 °C 29.81 in /  1009.4 hPa WSW 6.9 mph /  11.1 km/h 13.0 mph /  20.9 km/h 72 % 0.00 in /  0 mm
21:45 32.0 °F /  0 °C 24.0 °F /  -4.4 °C 29.83 in /  1010 hPa SSW 6.5 mph /  10.5 km/h 12.7 mph /  20.4 km/h 72 % 0.00 in /  0 mm
21:50 32.0 °F /  0 °C 24.0 °F /  -4.4 °C 29.83 in /  1010 hPa WSW 6.0 mph /  9.7 km/h 13.0 mph /  20.9 km/h 72 % 0.00 in /  0 mm
21:55 32.0 °F /  0 °C 24.3 °F /  -4.3 °C 29.83 in /  1010 hPa SW 7.7 mph /  12.4 km/h 11.5 mph /  18.5 km/h 73 % 0.00 in /  0 mm
22:01 32.0 °F /  0 °C 24.3 °F /  -4.3 °C 29.84 in /  1010.4 hPa WSW 7.8 mph /  12.6 km/h 12.0 mph /  19.3 km/h 73 % 0.00 in /  0 mm
22:06 32.0 °F /  0 °C 24.3 °F /  -4.3 °C 29.83 in /  1010 hPa SW 4.7 mph /  7.6 km/h 10.4 mph /  16.7 km/h 73 % 0.00 in /  0 mm
22:11 32.0 °F /  0 °C 24.6 °F /  -4.1 °C 29.83 in /  1010 hPa SW 5.0 mph /  8 km/h 11.5 mph /  18.5 km/h 74 % 0.00 in /  0 mm
22:16 32.0 °F /  0 °C 24.6 °F /  -4.1 °C 29.83 in /  1010 hPa SSW 7.3 mph /  11.7 km/h 13.8 mph /  22.2 km/h 74 % 0.00 in /  0 mm
22:21 32.0 °F /  0 °C 25.0 °F /  -3.9 °C 29.83 in /  1010 hPa SW 3.2 mph /  5.1 km/h 8.1 mph /  13 km/h 75 % 0.00 in /  0 mm
22:26 32.0 °F /  0 °C 25.0 °F /  -3.9 °C 29.83 in /  1010 hPa SSW 3.2 mph /  5.1 km/h 6.9 mph /  11.1 km/h 75 % 0.00 in /  0 mm
22:31 32.0 °F /  0 °C 25.0 °F /  -3.9 °C 29.82 in /  1009.7 hPa SSW 5.5 mph /  8.9 km/h 8.1 mph /  13 km/h 75 % 0.00 in /  0 mm
22:36 31.9 °F /  -0.1 °C 25.2 °F /  -3.8 °C 29.82 in /  1009.7 hPa SSW 5.6 mph /  9 km/h 10.0 mph /  16.1 km/h 76 % 0.00 in /  0 mm
22:41 32.0 °F /  0 °C 25.3 °F /  -3.7 °C 29.82 in /  1009.7 hPa SSW 3.3 mph /  5.3 km/h 11.5 mph /  18.5 km/h 76 % 0.00 in /  0 mm
22:46 32.0 °F /  0 °C 25.0 °F /  -3.9 °C 29.82 in /  1009.7 hPa SW 3.5 mph /  5.6 km/h 5.8 mph /  9.3 km/h 75 % 0.00 in /  0 mm
22:51 32.0 °F /  0 °C 25.0 °F /  -3.9 °C 29.82 in /  1009.7 hPa SW 6.2 mph /  10 km/h 11.5 mph /  18.5 km/h 75 % 0.00 in /  0 mm
22:56 32.0 °F /  0 °C 25.0 °F /  -3.9 °C 29.82 in /  1009.7 hPa WSW 4.4 mph /  7.1 km/h 6.9 mph /  11.1 km/h 75 % 0.00 in /  0 mm
23:01 32.0 °F /  0 °C 25.0 °F /  -3.9 °C 29.81 in /  1009.4 hPa South 2.1 mph /  3.4 km/h 6.9 mph /  11.1 km/h 75 % 0.00 in /  0 mm
23:06 32.0 °F /  0 °C 25.0 °F /  -3.9 °C 29.81 in /  1009.4 hPa WSW 3.2 mph /  5.1 km/h 11.5 mph /  18.5 km/h 75 % 0.00 in /  0 mm
23:11 32.1 °F /  0.1 °C 25.1 °F /  -3.8 °C 29.82 in /  1009.7 hPa SW 4.8 mph /  7.7 km/h 10.4 mph /  16.7 km/h 75 % 0.00 in /  0 mm
23:16 32.1 °F /  0.1 °C 24.7 °F /  -4.1 °C 29.82 in /  1009.7 hPa SSW 5.4 mph /  8.7 km/h 10.4 mph /  16.7 km/h 74 % 0.00 in /  0 mm
23:22 32.2 °F /  0.1 °C 24.8 °F /  -4 °C 29.83 in /  1010 hPa SSW 3.3 mph /  5.3 km/h 5.8 mph /  9.3 km/h 74 % 0.00 in /  0 mm
23:27 32.2 °F /  0.1 °C 24.8 °F /  -4 °C 29.83 in /  1010 hPa South 4.7 mph /  7.6 km/h 9.2 mph /  14.8 km/h 74 % 0.00 in /  0 mm
23:32 32.2 °F /  0.1 °C 24.5 °F /  -4.2 °C 29.83 in /  1010 hPa SSW 4.8 mph /  7.7 km/h 10.4 mph /  16.7 km/h 73 % 0.00 in /  0 mm
23:37 32.3 °F /  0.2 °C 24.6 °F /  -4.1 °C 29.82 in /  1009.7 hPa SW 4.5 mph /  7.2 km/h 16.1 mph /  25.9 km/h 73 % 0.00 in /  0 mm
23:42 32.3 °F /  0.2 °C 24.3 °F /  -4.3 °C 29.82 in /  1009.7 hPa WSW 2.1 mph /  3.4 km/h 4.6 mph /  7.4 km/h 72 % 0.00 in /  0 mm
23:47 32.4 °F /  0.2 °C 24.4 °F /  -4.2 °C 29.82 in /  1009.7 hPa SW 5.3 mph /  8.5 km/h 11.5 mph /  18.5 km/h 72 % 0.00 in /  0 mm
23:52 32.4 °F /  0.2 °C 24.0 °F /  -4.4 °C 29.82 in /  1009.7 hPa South 5.6 mph /  9 km/h 9.2 mph /  14.8 km/h 71 % 0.00 in /  0 mm
23:57 32.4 °F /  0.2 °C 24.0 °F /  -4.4 °C 29.82 in /  1009.7 hPa SW 2.9 mph /  4.7 km/h 3.5 mph /  5.6 km/h 71 % 0.00 in /  0 mm
Crab Meadow Weather
Compliments of Weather Underground - 3 mb

Script developed by  Jim McMurry - jmcmurry@mwt.net Adapted for the template by  Wim van der Kuil - Leuven-Template.eu

Astronomy: One year on Mercury is only 88 days.